North Andover, Massachusetts
Current Conditions -  °F | °C
As of 7:54 PM on Saturday 25 Oct 2014 (Local Time) from KLWM Reporting Station
Broken Clouds Broken Clouds  
Wind Chill: 55°   Ceiling: 10000
Heat Index: 55°   Visibility: 10mi
Dew Point: 45°   Wind: 6mph
Humidity: 69%   Direction: 220°SW
Pressure: 29.59"   Gusts: NA
Location:  42.7°N, 71.13°W
Report Text: KLWM 252354Z 22005KT 10SM BKN100 13/07 A2959 RMK AO2 SLP021 T01280072 10183 20122 51002
Loading
Personal Weather Stations






























Interactive Weather Map
Tropical Storm Tracking
New forecast layout! Learn more

10-Day Weather Forecast

Advertisements
Track Severe Weather on mobile